Time;durP1;ratioP1;P1;durP2;ratioP2;P2;SDS_P1;SDS_P2;PMS_P1;PMS_P2;Temp;Humidity;BMP_temperature;BMP_pressure;BME280_temperature;BME280_humidity;BME280_pressure;Samples;Min_cycle;Max_cycle;Signal;HPM_P1;HPM_P2
2021/08/22 00:01:19;;;;;;;15.55;9.25;;;;;;;;;;4966034;28;20023;-45
2021/08/22 00:03:45;;;;;;;23.27;14.52;;;;;;;;;;4965503;28;20375;-46
2021/08/22 00:06:11;;;;;;;28.90;16.60;;;;;;;;;;4966561;28;20038;-44
2021/08/22 00:08:40;;;;;;;18.45;8.82;;;;;;;;;;4966179;28;20114;-44
2021/08/22 00:11:07;;;;;;;60.15;39.10;;;;;;;;;;4965743;28;20049;-44
2021/08/22 00:13:33;;;;;;;40.70;24.38;;;;;;;;;;4965266;28;20494;-47
2021/08/22 00:15:59;;;;;;;19.17;9.65;;;;;;;;;;4967645;28;20525;-44
2021/08/22 00:18:25;;;;;;;10.18;5.47;;;;;;;;;;4974767;28;20023;-49
2021/08/22 00:20:51;;;;;;;12.73;6.35;;;;;;;;;;4976125;28;20026;-49
2021/08/22 00:23:20;;;;;;;18.27;7.95;;;;;;;;;;4976120;28;20025;-43
2021/08/22 00:25:46;;;;;;;14.82;7.57;;;;;;;;;;4975886;28;20026;-49
2021/08/22 00:28:12;;;;;;;17.70;6.00;;;;;;;;;;4975981;28;20027;-46
2021/08/22 00:30:38;;;;;;;16.73;6.93;;;;;;;;;;4975910;28;20023;-44
2021/08/22 00:33:04;;;;;;;12.77;6.03;;;;;;;;;;4976160;28;20042;-51
2021/08/22 00:35:30;;;;;;;10.63;6.05;;;;;;;;;;4975878;28;20027;-45
2021/08/22 00:37:59;;;;;;;9.13;5.68;;;;;;;;;;4975676;28;20031;-50
2021/08/22 00:40:25;;;;;;;9.55;5.70;;;;;;;;;;4975707;28;20380;-44
2021/08/22 00:42:51;;;;;;;11.45;5.70;;;;;;;;;;4975802;28;20035;-49
2021/08/22 00:45:17;;;;;;;14.35;6.85;;;;;;;;;;4975841;28;20031;-43
2021/08/22 00:47:46;;;;;;;13.13;5.95;;;;;;;;;;4975622;28;20030;-47
2021/08/22 00:50:16;;;;;;;16.30;7.07;;;;;;;;;;4975571;28;20070;-42
2021/08/22 00:52:42;;;;;;;11.00;5.93;;;;;;;;;;4975702;28;20464;-42
2021/08/22 00:55:08;;;;;;;9.32;6.03;;;;;;;;;;4975615;28;20025;-50
2021/08/22 00:57:35;;;;;;;9.80;5.97;;;;;;;;;;4975680;28;20023;-43
2021/08/22 01:00:02;;;;;;;15.77;6.60;;;;;;;;;;4975408;28;20023;-44
2021/08/22 01:02:30;;;;;;;11.55;6.47;;;;;;;;;;4975301;28;20463;-45
2021/08/22 01:04:59;;;;;;;11.88;6.70;;;;;;;;;;4975440;28;20105;-49
2021/08/22 01:07:28;;;;;;;9.70;6.40;;;;;;;;;;4975215;28;20070;-46
2021/08/22 01:09:54;;;;;;;13.02;6.07;;;;;;;;;;4975000;28;20054;-50
2021/08/22 01:12:32;;;;;;;11.05;6.03;;;;;;;;;;4975410;28;20073;-43
2021/08/22 01:15:02;;;;;;;9.85;6.28;;;;;;;;;;4975317;28;20139;-43
2021/08/22 01:17:30;;;;;;;10.88;6.40;;;;;;;;;;4975008;28;20027;-44
2021/08/22 01:20:02;;;;;;;12.90;6.20;;;;;;;;;;4975337;28;20105;-46
2021/08/22 01:22:29;;;;;;;13.32;6.70;;;;;;;;;;4975172;28;20559;-44
2021/08/22 01:24:56;;;;;;;11.20;5.85;;;;;;;;;;4975028;28;20023;-50
2021/08/22 01:27:22;;;;;;;12.70;6.20;;;;;;;;;;4974952;28;20034;-49
2021/08/22 01:29:54;;;;;;;11.45;6.35;;;;;;;;;;4974806;28;20027;-43
2021/08/22 01:32:21;;;;;;;10.10;5.78;;;;;;;;;;4974849;28;20027;-50
2021/08/22 01:34:48;;;;;;;11.52;6.10;;;;;;;;;;4974747;28;20057;-43
2021/08/22 01:37:14;;;;;;;10.63;5.63;;;;;;;;;;4974795;28;20023;-43
2021/08/22 01:39:42;;;;;;;10.95;5.63;;;;;;;;;;4974676;28;20035;-44
2021/08/22 01:42:10;;;;;;;14.65;6.22;;;;;;;;;;4974995;28;20038;-43
2021/08/22 01:44:40;;;;;;;10.07;5.53;;;;;;;;;;4974865;28;20049;-44
2021/08/22 01:47:07;;;;;;;11.60;5.43;;;;;;;;;;4974550;28;20484;-46
2021/08/22 01:49:33;;;;;;;9.85;5.53;;;;;;;;;;4974899;28;20460;-47
2021/08/22 01:51:59;;;;;;;11.38;5.80;;;;;;;;;;4974727;28;20031;-43
2021/08/22 01:54:28;;;;;;;10.10;6.10;;;;;;;;;;4974710;28;20023;-46
2021/08/22 01:56:54;;;;;;;10.23;5.63;;;;;;;;;;4974529;28;20034;-44
2021/08/22 01:59:20;;;;;;;10.45;5.15;;;;;;;;;;4974561;28;20033;-45
2021/08/22 02:01:46;;;;;;;13.60;5.97;;;;;;;;;;4974855;28;20027;-44
2021/08/22 02:04:17;;;;;;;13.00;6.57;;;;;;;;;;4974702;28;20034;-46
2021/08/22 02:06:47;;;;;;;8.10;6.03;;;;;;;;;;4974514;28;20067;-44
2021/08/22 02:09:14;;;;;;;8.53;5.50;;;;;;;;;;4974277;28;20047;-44
2021/08/22 02:11:45;;;;;;;12.02;5.85;;;;;;;;;;4974461;28;20397;-44
2021/08/22 02:14:13;;;;;;;13.88;5.85;;;;;;;;;;4974379;28;20026;-44
2021/08/22 02:16:41;;;;;;;13.13;5.47;;;;;;;;;;4974412;28;20027;-43
2021/08/22 02:19:10;;;;;;;12.30;5.93;;;;;;;;;;4974555;28;20030;-44
2021/08/22 02:21:38;;;;;;;16.48;6.10;;;;;;;;;;4978267;28;20411;-44
2021/08/22 02:24:04;;;;;;;9.13;5.70;;;;;;;;;;4978260;28;20419;-44
2021/08/22 02:26:30;;;;;;;11.38;6.00;;;;;;;;;;4978051;28;20387;-46
2021/08/22 02:29:00;;;;;;;12.30;6.55;;;;;;;;;;4978133;28;20395;-45
2021/08/22 02:31:29;;;;;;;10.77;6.28;;;;;;;;;;4978079;28;20394;-44
2021/08/22 02:33:56;;;;;;;11.35;5.85;;;;;;;;;;4978086;28;20022;-49
2021/08/22 02:36:22;;;;;;;11.18;6.72;;;;;;;;;;4978005;28;20031;-45
2021/08/22 02:38:50;;;;;;;11.15;6.30;;;;;;;;;;4978004;28;20510;-49
2021/08/22 02:41:17;;;;;;;12.68;6.93;;;;;;;;;;4977951;28;20043;-50
2021/08/22 02:43:43;;;;;;;15.10;6.75;;;;;;;;;;4978286;28;20021;-49
2021/08/22 02:46:09;;;;;;;14.77;5.70;;;;;;;;;;4978179;28;20390;-43
2021/08/22 02:48:35;;;;;;;12.68;6.00;;;;;;;;;;4978047;28;20050;-43
2021/08/22 02:51:02;;;;;;;12.07;6.07;;;;;;;;;;4977709;28;20030;-42
2021/08/22 02:53:28;;;;;;;12.23;6.90;;;;;;;;;;4977767;28;20085;-42
2021/08/22 02:55:54;;;;;;;14.98;6.47;;;;;;;;;;4977638;28;20031;-43
2021/08/22 02:58:20;;;;;;;10.57;6.10;;;;;;;;;;4977690;28;20050;-41
2021/08/22 03:00:47;;;;;;;16.30;6.97;;;;;;;;;;4977720;28;20555;-50
2021/08/22 03:03:13;;;;;;;17.45;6.63;;;;;;;;;;4977648;28;20027;-49
2021/08/22 03:05:39;;;;;;;10.90;7.05;;;;;;;;;;4977366;28;20019;-44
2021/08/22 03:08:05;;;;;;;12.70;6.53;;;;;;;;;;4977288;28;20031;-44
2021/08/22 03:10:32;;;;;;;13.65;6.65;;;;;;;;;;4977279;28;20411;-44
2021/08/22 03:12:58;;;;;;;10.88;6.38;;;;;;;;;;4977297;28;20053;-43
2021/08/22 03:15:24;;;;;;;15.13;6.57;;;;;;;;;;4977334;28;20023;-43
2021/08/22 03:17:50;;;;;;;21.35;7.00;;;;;;;;;;4977317;28;20031;-43
2021/08/22 03:20:16;;;;;;;15.73;6.43;;;;;;;;;;4977470;28;20047;-43
2021/08/22 03:22:44;;;;;;;13.07;6.32;;;;;;;;;;4977322;28;20162;-43
2021/08/22 03:25:10;;;;;;;14.23;7.88;;;;;;;;;;4977329;28;20120;-43
2021/08/22 03:27:37;;;;;;;13.13;8.75;;;;;;;;;;4976902;28;20097;-48
2021/08/22 03:30:05;;;;;;;16.92;8.32;;;;;;;;;;4976708;28;20399;-50
2021/08/22 03:32:31;;;;;;;15.20;6.55;;;;;;;;;;4977033;28;20631;-49
2021/08/22 03:34:58;;;;;;;13.00;6.10;;;;;;;;;;4977059;28;20375;-43
2021/08/22 03:37:24;;;;;;;12.88;5.93;;;;;;;;;;4976883;28;20025;-44
2021/08/22 03:39:50;;;;;;;14.85;6.80;;;;;;;;;;4976892;28;20027;-46
2021/08/22 03:42:16;;;;;;;13.80;5.88;;;;;;;;;;4976744;28;20030;-50
2021/08/22 03:44:42;;;;;;;12.68;7.75;;;;;;;;;;4976761;28;20026;-44
2021/08/22 03:47:08;;;;;;;17.55;8.57;;;;;;;;;;4976787;28;20039;-44
2021/08/22 03:49:35;;;;;;;12.45;7.35;;;;;;;;;;4976855;28;20027;-43
2021/08/22 03:52:01;;;;;;;16.83;6.97;;;;;;;;;;4976577;28;20034;-44
2021/08/22 03:54:27;;;;;;;15.88;7.13;;;;;;;;;;4976666;28;20150;-43
2021/08/22 03:56:53;;;;;;;17.85;6.13;;;;;;;;;;4976554;28;20509;-43
2021/08/22 03:59:19;;;;;;;11.13;6.05;;;;;;;;;;4976427;28;20026;-43
2021/08/22 04:01:46;;;;;;;12.15;7.20;;;;;;;;;;4976439;28;20480;-43
2021/08/22 04:04:12;;;;;;;12.77;6.53;;;;;;;;;;4976526;28;20030;-48
2021/08/22 04:06:40;;;;;;;12.30;6.50;;;;;;;;;;4976183;28;20034;-45
2021/08/22 04:09:07;;;;;;;14.57;5.82;;;;;;;;;;4976066;28;20376;-43
2021/08/22 04:11:33;;;;;;;18.17;6.07;;;;;;;;;;4976095;28;20043;-44
2021/08/22 04:13:59;;;;;;;12.38;6.93;;;;;;;;;;4976467;28;20055;-44
2021/08/22 04:16:26;;;;;;;11.00;5.90;;;;;;;;;;4976160;28;20415;-44
2021/08/22 04:18:52;;;;;;;19.83;6.25;;;;;;;;;;4976285;28;20027;-45
2021/08/22 04:21:18;;;;;;;10.23;5.50;;;;;;;;;;4976157;28;20026;-44
2021/08/22 04:23:44;;;;;;;10.35;5.68;;;;;;;;;;4976020;28;20033;-43
2021/08/22 04:26:10;;;;;;;16.20;6.65;;;;;;;;;;4975903;28;20043;-49
2021/08/22 04:28:36;;;;;;;12.43;6.22;;;;;;;;;;4975881;28;20483;-44
2021/08/22 04:31:05;;;;;;;11.45;6.03;;;;;;;;;;4975891;28;20037;-43
2021/08/22 04:33:31;;;;;;;14.93;6.22;;;;;;;;;;4976098;28;20077;-48
2021/08/22 04:35:57;;;;;;;9.68;5.40;;;;;;;;;;4975742;28;20023;-49
2021/08/22 04:38:23;;;;;;;12.07;5.82;;;;;;;;;;4975653;28;20435;-49
2021/08/22 04:40:49;;;;;;;8.88;5.45;;;;;;;;;;4975848;28;20023;-44
2021/08/22 04:43:15;;;;;;;20.02;6.03;;;;;;;;;;4975037;28;20027;-44
2021/08/22 04:45:41;;;;;;;14.80;6.07;;;;;;;;;;4975778;28;20081;-43
2021/08/22 04:48:07;;;;;;;14.85;6.32;;;;;;;;;;4975912;28;20031;-43
2021/08/22 04:50:33;;;;;;;18.25;6.47;;;;;;;;;;4975626;28;20019;-44
2021/08/22 04:52:59;;;;;;;15.38;6.45;;;;;;;;;;4975665;28;20058;-44
2021/08/22 04:55:25;;;;;;;13.20;6.03;;;;;;;;;;4974206;28;20483;-43
2021/08/22 04:57:52;;;;;;;15.60;6.15;;;;;;;;;;4975277;28;20553;-43
2021/08/22 05:00:18;;;;;;;14.10;7.25;;;;;;;;;;4975302;28;20050;-43
2021/08/22 05:02:44;;;;;;;23.33;13.15;;;;;;;;;;4975532;28;20502;-43
2021/08/22 05:05:10;;;;;;;32.13;14.00;;;;;;;;;;4975342;28;20029;-44
2021/08/22 05:07:36;;;;;;;17.45;11.05;;;;;;;;;;4975186;28;20502;-43
2021/08/22 05:10:02;;;;;;;25.00;12.95;;;;;;;;;;4974927;28;20047;-43
2021/08/22 05:12:29;;;;;;;19.77;8.73;;;;;;;;;;4974979;28;20026;-43
2021/08/22 05:14:55;;;;;;;14.32;7.32;;;;;;;;;;4975100;28;20023;-44
2021/08/22 05:17:21;;;;;;;16.15;7.63;;;;;;;;;;4975128;28;20505;-44
2021/08/22 05:19:47;;;;;;;22.23;7.65;;;;;;;;;;4975181;28;20464;-44
2021/08/22 05:22:13;;;;;;;11.27;6.82;;;;;;;;;;4975209;28;20030;-46
2021/08/22 05:24:39;;;;;;;16.05;7.20;;;;;;;;;;4975057;28;20055;-44
2021/08/22 05:27:05;;;;;;;14.98;6.97;;;;;;;;;;4974931;28;20039;-43
2021/08/22 05:29:33;;;;;;;16.17;8.32;;;;;;;;;;4974836;28;20442;-43
2021/08/22 05:32:04;;;;;;;23.17;8.07;;;;;;;;;;4974911;28;20030;-43
2021/08/22 05:34:30;;;;;;;18.60;7.90;;;;;;;;;;4974877;28;20471;-44
2021/08/22 05:36:56;;;;;;;16.48;7.45;;;;;;;;;;4974853;28;20023;-44
2021/08/22 05:39:22;;;;;;;14.80;7.53;;;;;;;;;;4974696;28;20023;-44
2021/08/22 05:41:48;;;;;;;20.20;9.93;;;;;;;;;;4974759;28;20069;-45
2021/08/22 05:44:14;;;;;;;18.83;9.98;;;;;;;;;;4974716;28;20051;-44
2021/08/22 05:46:40;;;;;;;18.30;9.80;;;;;;;;;;4974771;28;20034;-50
2021/08/22 05:49:06;;;;;;;23.05;9.85;;;;;;;;;;4974735;28;20029;-48
2021/08/22 05:51:32;;;;;;;18.20;8.55;;;;;;;;;;4974558;28;20097;-44
2021/08/22 05:53:58;;;;;;;15.70;8.98;;;;;;;;;;4974600;28;20034;-43
2021/08/22 05:56:24;;;;;;;15.85;7.63;;;;;;;;;;4974583;28;20073;-44
2021/08/22 05:58:51;;;;;;;15.45;7.47;;;;;;;;;;4974497;28;20395;-44
2021/08/22 06:01:17;;;;;;;15.25;7.85;;;;;;;;;;4974527;28;20023;-49
2021/08/22 06:03:43;;;;;;;14.43;7.28;;;;;;;;;;4974755;28;20037;-46
2021/08/22 06:06:13;;;;;;;13.43;6.93;;;;;;;;;;4974323;28;20023;-44
2021/08/22 06:08:39;;;;;;;15.25;7.68;;;;;;;;;;4974235;28;20089;-47
2021/08/22 06:11:05;;;;;;;18.77;7.72;;;;;;;;;;4973587;28;20030;-43
2021/08/22 06:13:32;;;;;;;13.90;7.38;;;;;;;;;;4974368;28;20031;-45
2021/08/22 06:15:58;;;;;;;16.58;7.97;;;;;;;;;;4974421;28;20551;-49
2021/08/22 06:18:24;;;;;;;13.00;6.95;;;;;;;;;;4974680;28;20035;-45
2021/08/22 06:20:50;;;;;;;15.68;7.95;;;;;;;;;;4974401;28;20506;-51
2021/08/22 06:23:16;;;;;;;17.92;8.75;;;;;;;;;;4974458;28;20168;-50
2021/08/22 06:25:42;;;;;;;24.98;14.63;;;;;;;;;;4974273;28;20072;-44
2021/08/22 06:28:13;;;;;;;20.90;13.15;;;;;;;;;;4974166;28;20037;-50
2021/08/22 06:30:39;;;;;;;19.10;9.55;;;;;;;;;;4974247;28;20114;-43
2021/08/22 06:33:05;;;;;;;12.52;7.50;;;;;;;;;;4974282;28;20035;-45
2021/08/22 06:35:33;;;;;;;14.90;6.88;;;;;;;;;;4974406;28;20054;-45
2021/08/22 06:37:59;;;;;;;12.95;6.40;;;;;;;;;;4974290;28;20030;-44
2021/08/22 06:40:28;;;;;;;12.70;5.55;;;;;;;;;;4974100;28;20078;-44
2021/08/22 06:42:54;;;;;;;12.18;7.25;;;;;;;;;;4974125;28;20075;-45
2021/08/22 06:45:20;;;;;;;11.18;6.10;;;;;;;;;;4974436;28;20027;-43
2021/08/22 06:47:46;;;;;;;12.43;5.90;;;;;;;;;;4973994;28;20030;-43
2021/08/22 06:50:13;;;;;;;16.23;4.95;;;;;;;;;;4974147;28;20073;-42
2021/08/22 06:52:39;;;;;;;9.13;5.32;;;;;;;;;;4973968;28;20035;-44
2021/08/22 06:55:06;;;;;;;10.05;4.70;;;;;;;;;;4974136;28;20029;-45
2021/08/22 06:57:32;;;;;;;7.68;4.72;;;;;;;;;;4974057;28;20383;-44
2021/08/22 06:59:58;;;;;;;10.82;4.40;;;;;;;;;;4974035;28;20062;-44
2021/08/22 07:02:26;;;;;;;6.88;4.20;;;;;;;;;;4973992;28;20031;-46
2021/08/22 07:04:52;;;;;;;8.93;3.92;;;;;;;;;;4974077;28;20611;-48
2021/08/22 07:07:21;;;;;;;8.63;4.03;;;;;;;;;;4977068;28;20097;-48
2021/08/22 07:09:47;;;;;;;9.20;4.00;;;;;;;;;;4977176;28;20050;-43
2021/08/22 07:12:15;;;;;;;19.55;11.90;;;;;;;;;;4977312;28;20027;-44
2021/08/22 07:14:42;;;;;;;15.93;5.45;;;;;;;;;;4977207;28;20026;-48
2021/08/22 07:17:08;;;;;;;6.82;3.38;;;;;;;;;;4977198;28;20043;-43
2021/08/22 07:19:36;;;;;;;10.85;5.90;;;;;;;;;;4977170;28;20026;-44
2021/08/22 07:22:03;;;;;;;10.43;6.40;;;;;;;;;;4977128;28;20535;-42
2021/08/22 07:24:29;;;;;;;11.70;5.15;;;;;;;;;;4977090;28;20027;-43
2021/08/22 07:26:55;;;;;;;11.43;7.38;;;;;;;;;;4987166;28;20034;-43
2021/08/22 07:29:21;;;;;;;29.40;15.77;;;;;;;;;;4996112;28;20053;-43
2021/08/22 07:31:47;;;;;;;35.65;23.00;;;;;;;;;;4996116;28;20026;-43
2021/08/22 07:34:13;;;;;;;40.00;20.88;;;;;;;;;;4996056;28;20502;-43
2021/08/22 07:36:39;;;;;;;8.60;5.53;;;;;;;;;;4995753;28;20029;-44
2021/08/22 07:39:06;;;;;;;15.88;8.13;;;;;;;;;;4995708;28;20460;-42
2021/08/22 07:41:32;;;;;;;12.00;4.97;;;;;;;;;;4995780;28;20035;-44
2021/08/22 07:43:58;;;;;;;25.08;13.32;;;;;;;;;;4995815;28;20030;-42
2021/08/22 07:46:24;;;;;;;11.88;5.35;;;;;;;;;;4995884;28;20379;-41
2021/08/22 07:48:51;;;;;;;18.35;8.90;;;;;;;;;;4995854;28;20108;-44
2021/08/22 07:51:17;;;;;;;12.13;4.25;;;;;;;;;;4995477;28;20026;-41
2021/08/22 07:53:43;;;;;;;18.13;7.97;;;;;;;;;;4995602;28;20443;-42
2021/08/22 07:56:09;;;;;;;16.90;7.55;;;;;;;;;;4995542;28;20018;-42
2021/08/22 07:58:37;;;;;;;9.93;4.30;;;;;;;;;;4995401;28;20072;-41
2021/08/22 08:01:05;;;;;;;5.55;3.55;;;;;;;;;;4995636;28;20059;-42
2021/08/22 08:03:31;;;;;;;5.53;3.03;;;;;;;;;;4995373;28;20050;-43
2021/08/22 08:05:58;;;;;;;5.55;2.60;;;;;;;;;;4995259;28;20026;-43
2021/08/22 08:08:24;;;;;;;5.20;2.65;;;;;;;;;;4995113;28;20042;-44
2021/08/22 08:10:50;;;;;;;6.25;2.88;;;;;;;;;;4995074;28;20051;-42
2021/08/22 08:13:17;;;;;;;7.85;2.78;;;;;;;;;;4995016;28;20047;-44
2021/08/22 08:15:43;;;;;;;4.93;3.58;;;;;;;;;;4995174;28;20022;-42
2021/08/22 08:18:10;;;;;;;6.80;3.72;;;;;;;;;;4993899;28;20545;-45
2021/08/22 08:20:36;;;;;;;6.97;3.80;;;;;;;;;;4994838;28;20027;-42
2021/08/22 08:23:02;;;;;;;6.18;2.88;;;;;;;;;;4994879;28;20073;-42
2021/08/22 08:25:28;;;;;;;6.97;5.03;;;;;;;;;;4995012;28;20101;-42
2021/08/22 08:27:57;;;;;;;8.95;2.75;;;;;;;;;;4994704;28;20042;-42
2021/08/22 08:30:25;;;;;;;6.13;2.90;;;;;;;;;;4994941;28;20018;-42
2021/08/22 08:32:51;;;;;;;8.18;2.70;;;;;;;;;;4994490;28;20388;-42
2021/08/22 08:35:17;;;;;;;4.70;3.05;;;;;;;;;;4994779;28;20089;-42
2021/08/22 08:37:43;;;;;;;7.53;3.40;;;;;;;;;;4994771;28;20530;-42
2021/08/22 08:40:30;;;;;;;8.27;3.35;;;;;;;;;;4992011;28;20022;-43
2021/08/22 08:42:57;;;;;;;3.15;2.85;;;;;;;;;;4992726;28;20031;-41
2021/08/22 08:45:29;;;;;;;3.85;3.10;;;;;;;;;;4994634;28;20018;-41
2021/08/22 08:47:56;;;;;;;5.53;2.70;;;;;;;;;;4992459;28;20541;-42
2021/08/22 08:50:51;;;;;;;4.50;2.85;;;;;;;;;;4994465;28;20023;-42
2021/08/22 08:53:28;;;;;;;15.07;2.72;;;;;;;;;;4985427;28;20038;-42
2021/08/22 08:55:57;;;;;;;5.50;2.58;;;;;;;;;;4992258;28;20097;-42
2021/08/22 08:58:23;;;;;;;6.60;2.40;;;;;;;;;;4994356;28;20037;-42
2021/08/22 09:00:50;;;;;;;3.53;2.17;;;;;;;;;;4991659;28;20383;-42
2021/08/22 09:03:16;;;;;;;3.35;2.30;;;;;;;;;;4994246;28;20030;-43
2021/08/22 09:05:57;;;;;;;8.05;2.42;;;;;;;;;;4994139;28;20014;-42
2021/08/22 09:08:32;;;;;;;2.25;2.05;;;;;;;;;;4993059;28;20086;-42
2021/08/22 09:11:17;;;;;;;3.38;2.60;;;;;;;;;;4992694;28;20038;-42
2021/08/22 09:14:02;;;;;;;3.80;2.42;;;;;;;;;;4993273;28;20034;-42
2021/08/22 09:16:46;;;;;;;3.35;2.45;;;;;;;;;;4993994;28;20379;-42
2021/08/22 09:19:34;;;;;;;8.07;2.75;;;;;;;;;;4991854;28;20023;-42
2021/08/22 09:22:18;;;;;;;2.60;2.22;;;;;;;;;;4992573;28;20471;-42
2021/08/22 09:25:03;;;;;;;4.55;2.50;;;;;;;;;;4993148;28;20494;-42
2021/08/22 09:27:47;;;;;;;3.45;2.47;;;;;;;;;;4993784;28;20486;-42
2021/08/22 09:30:34;;;;;;;3.53;2.65;;;;;;;;;;4991573;28;20026;-42
2021/08/22 09:33:19;;;;;;;4.50;2.35;;;;;;;;;;4992436;28;20019;-42
2021/08/22 09:36:03;;;;;;;4.93;2.55;;;;;;;;;;4993128;28;20475;-42
2021/08/22 09:38:48;;;;;;;3.17;2.60;;;;;;;;;;4991102;28;20371;-42
2021/08/22 09:41:23;;;;;;;5.03;2.40;;;;;;;;;;4974717;28;20039;-42
2021/08/22 09:44:10;;;;;;;2.28;2.00;;;;;;;;;;4974755;28;20030;-42
2021/08/22 09:46:55;;;;;;;6.80;2.70;;;;;;;;;;4974791;28;20139;-40
2021/08/22 09:49:25;;;;;;;2.92;2.40;;;;;;;;;;4974736;28;20113;-43
2021/08/22 09:52:00;;;;;;;7.10;3.35;;;;;;;;;;4974533;28;20038;-45
2021/08/22 09:54:45;;;;;;;7.78;2.25;;;;;;;;;;4974611;28;20034;-42
2021/08/22 09:57:29;;;;;;;7.63;2.75;;;;;;;;;;4974489;28;20023;-42
2021/08/22 10:00:14;;;;;;;4.78;2.28;;;;;;;;;;4974502;28;20027;-43
2021/08/22 10:02:58;;;;;;;5.60;2.28;;;;;;;;;;4974353;28;20023;-42
2021/08/22 10:05:31;;;;;;;4.45;2.20;;;;;;;;;;4974413;28;20038;-43
2021/08/22 10:08:16;;;;;;;4.07;2.30;;;;;;;;;;4974347;28;20194;-43
2021/08/22 10:11:02;;;;;;;2.67;2.10;;;;;;;;;;4974240;28;20058;-42
2021/08/22 10:13:29;;;;;;;3.58;2.40;;;;;;;;;;4974427;28;20500;-41
2021/08/22 10:15:58;;;;;;;9.15;8.00;;;;;;;;;;4990422;28;20034;-42
2021/08/22 10:18:28;;;;;;;5.05;3.88;;;;;;;;;;4993097;28;20050;-43
2021/08/22 10:21:07;;;;;;;5.35;2.47;;;;;;;;;;4993108;28;20019;-41
2021/08/22 10:23:40;;;;;;;3.05;2.28;;;;;;;;;;4990398;28;20034;-42
2021/08/22 10:26:07;;;;;;;6.25;2.15;;;;;;;;;;4993364;28;20023;-42
2021/08/22 10:28:47;;;;;;;10.20;2.58;;;;;;;;;;4993036;28;20058;-42
2021/08/22 10:31:13;;;;;;;5.00;2.55;;;;;;;;;;4993100;28;20475;-42
2021/08/22 10:33:57;;;;;;;2.95;2.30;;;;;;;;;;4993238;28;20026;-42
2021/08/22 10:36:28;;;;;;;3.50;2.05;;;;;;;;;;4991845;28;20030;-45
2021/08/22 10:39:12;;;;;;;2.63;2.33;;;;;;;;;;4990475;28;20026;-43
2021/08/22 10:41:38;;;;;;;10.57;7.78;;;;;;;;;;4996133;28;20097;-42
2021/08/22 10:44:24;;;;;;;4.28;2.08;;;;;;;;;;4997174;28;20036;-43
2021/08/22 10:46:50;;;;;;;5.85;4.07;;;;;;;;;;4996418;28;20034;-43
2021/08/22 10:49:17;;;;;;;6.53;2.72;;;;;;;;;;4997135;28;20054;-43
2021/08/22 10:52:03;;;;;;;3.67;2.60;;;;;;;;;;4997222;28;20106;-42
2021/08/22 10:54:29;;;;;;;3.03;2.72;;;;;;;;;;4997187;28;20018;-42
2021/08/22 10:56:55;;;;;;;3.58;2.38;;;;;;;;;;4997033;28;20022;-43
2021/08/22 10:59:24;;;;;;;3.25;2.30;;;;;;;;;;4997010;28;20034;-42
2021/08/22 11:01:50;;;;;;;2.92;2.55;;;;;;;;;;4996873;28;20019;-42
2021/08/22 11:04:16;;;;;;;2.58;2.30;;;;;;;;;;4996900;28;20077;-42
2021/08/22 11:07:02;;;;;;;3.13;2.30;;;;;;;;;;4996789;28;20467;-41
2021/08/22 11:09:37;;;;;;;9.73;3.97;;;;;;;;;;4996561;28;20418;-42
2021/08/22 11:12:03;;;;;;;6.60;3.58;;;;;;;;;;4996815;28;20489;-42
2021/08/22 11:14:31;;;;;;;3.28;2.00;;;;;;;;;;4996732;28;20030;-42
2021/08/22 11:17:00;;;;;;;8.07;3.50;;;;;;;;;;4996702;28;20074;-41
2021/08/22 11:19:26;;;;;;;8.00;3.22;;;;;;;;;;4997048;28;20023;-41
2021/08/22 11:21:52;;;;;;;3.58;2.17;;;;;;;;;;4996288;28;20022;-41
2021/08/22 11:24:21;;;;;;;3.85;2.30;;;;;;;;;;4996468;28;20406;-42
2021/08/22 11:26:47;;;;;;;3.72;2.85;;;;;;;;;;4996486;28;20030;-41
2021/08/22 11:29:13;;;;;;;3.03;2.42;;;;;;;;;;4996723;28;20552;-40
2021/08/22 11:31:39;;;;;;;2.33;2.10;;;;;;;;;;4996444;28;20076;-41
2021/08/22 11:34:12;;;;;;;3.00;2.28;;;;;;;;;;4996513;28;20031;-41
2021/08/22 11:36:39;;;;;;;4.80;2.75;;;;;;;;;;4996795;28;20027;-41
2021/08/22 11:39:12;;;;;;;3.13;2.17;;;;;;;;;;4996092;28;20093;-41
2021/08/22 11:41:42;;;;;;;3.85;2.13;;;;;;;;;;4996495;28;20044;-41
2021/08/22 11:44:11;;;;;;;3.03;2.58;;;;;;;;;;4996367;28;20096;-41
2021/08/22 11:46:37;;;;;;;3.60;2.20;;;;;;;;;;4996338;28;20026;-41
2021/08/22 11:49:03;;;;;;;3.45;2.40;;;;;;;;;;4996230;28;20026;-39
2021/08/22 11:51:30;;;;;;;4.03;2.70;;;;;;;;;;4995739;28;20037;-43
2021/08/22 11:53:56;;;;;;;3.17;2.30;;;;;;;;;;4996010;28;20034;-42
2021/08/22 11:56:25;;;;;;;5.20;2.40;;;;;;;;;;4995971;28;20026;-41
2021/08/22 11:58:52;;;;;;;2.67;2.00;;;;;;;;;;4996043;28;20023;-39
2021/08/22 12:01:18;;;;;;;4.60;2.55;;;;;;;;;;4995951;28;20495;-41
2021/08/22 12:04:00;;;;;;;4.18;2.17;;;;;;;;;;4995809;28;20034;-41
2021/08/22 12:06:27;;;;;;;3.15;2.15;;;;;;;;;;4995737;28;20574;-41
2021/08/22 12:08:56;;;;;;;4.43;2.40;;;;;;;;;;4995504;28;20046;-41
2021/08/22 12:11:24;;;;;;;2.60;2.20;;;;;;;;;;4995773;28;20035;-39
2021/08/22 12:13:51;;;;;;;3.20;1.80;;;;;;;;;;4995758;28;20026;-41
2021/08/22 12:16:44;;;;;;;5.97;2.42;;;;;;;;;;4995675;28;20479;-41
2021/08/22 12:19:20;;;;;;;3.78;2.70;;;;;;;;;;4954605;29;20083;-41
2021/08/22 12:21:47;;;;;;;3.92;2.30;;;;;;;;;;4954591;29;20044;-40
2021/08/22 12:24:22;;;;;;;4.95;2.15;;;;;;;;;;4954328;29;20078;-42
2021/08/22 12:26:49;;;;;;;2.05;1.83;;;;;;;;;;4954555;29;20039;-41
2021/08/22 12:29:16;;;;;;;3.00;2.00;;;;;;;;;;4954549;29;20037;-43
2021/08/22 12:31:42;;;;;;;2.35;1.83;;;;;;;;;;4954487;29;20034;-41
2021/08/22 12:34:10;;;;;;;3.28;2.33;;;;;;;;;;4954639;29;20031;-42
2021/08/22 12:36:42;;;;;;;7.93;3.47;;;;;;;;;;4954502;29;20031;-41
2021/08/22 12:39:09;;;;;;;3.63;2.03;;;;;;;;;;4954434;29;20038;-41
2021/08/22 12:41:43;;;;;;;11.73;9.15;;;;;;;;;;4954466;29;20114;-41
2021/08/22 12:44:20;;;;;;;4.15;2.75;;;;;;;;;;4954347;29;20047;-41
2021/08/22 12:46:55;;;;;;;6.00;2.50;;;;;;;;;;4954723;29;20027;-41
2021/08/22 12:49:22;;;;;;;3.83;2.85;;;;;;;;;;4954313;29;20039;-42
2021/08/22 12:51:49;;;;;;;3.85;2.30;;;;;;;;;;4954248;29;20037;-42
2021/08/22 12:54:16;;;;;;;2.60;2.33;;;;;;;;;;4954213;29;20071;-44
2021/08/22 12:56:42;;;;;;;2.40;2.20;;;;;;;;;;4986659;28;20114;-41
2021/08/22 12:59:08;;;;;;;4.07;2.70;;;;;;;;;;4994867;28;20026;-42
2021/08/22 13:01:34;;;;;;;4.22;2.55;;;;;;;;;;4994988;28;20031;-43
2021/08/22 13:04:00;;;;;;;4.00;2.75;;;;;;;;;;4994112;28;20022;-45
2021/08/22 13:06:27;;;;;;;4.30;2.20;;;;;;;;;;4994683;28;20034;-41
2021/08/22 13:08:53;;;;;;;2.72;2.15;;;;;;;;;;4993682;28;20047;-41
2021/08/22 13:11:20;;;;;;;3.60;2.15;;;;;;;;;;4993895;28;20394;-41
2021/08/22 13:13:47;;;;;;;4.05;2.30;;;;;;;;;;4994076;28;20536;-40
2021/08/22 13:16:13;;;;;;;5.60;2.50;;;;;;;;;;4993865;28;20136;-48
2021/08/22 13:18:39;;;;;;;2.78;1.90;;;;;;;;;;4993947;28;20030;-44
2021/08/22 13:21:07;;;;;;;7.90;2.35;;;;;;;;;;4993965;28;20485;-46
2021/08/22 13:23:34;;;;;;;2.75;2.03;;;;;;;;;;4993677;28;20026;-44
2021/08/22 13:26:00;;;;;;;3.30;2.05;;;;;;;;;;4993845;28;20033;-44
2021/08/22 13:28:26;;;;;;;14.32;3.50;;;;;;;;;;4993882;28;20466;-46
2021/08/22 13:30:52;;;;;;;11.40;2.15;;;;;;;;;;4993648;28;20027;-44
2021/08/22 13:33:18;;;;;;;3.92;2.22;;;;;;;;;;4993748;28;20030;-46
2021/08/22 13:35:45;;;;;;;5.70;2.90;;;;;;;;;;4993726;28;20049;-45
2021/08/22 13:38:11;;;;;;;6.15;2.60;;;;;;;;;;4990854;28;20022;-47
2021/08/22 13:40:37;;;;;;;3.15;2.55;;;;;;;;;;4993686;28;20033;-46
2021/08/22 13:43:03;;;;;;;27.80;4.53;;;;;;;;;;4993488;28;20022;-43
2021/08/22 13:45:29;;;;;;;3.83;2.35;;;;;;;;;;4994268;28;20033;-41
2021/08/22 13:47:55;;;;;;;5.13;2.63;;;;;;;;;;4993858;28;20498;-42
2021/08/22 13:50:21;;;;;;;2.95;2.15;;;;;;;;;;4993958;28;20026;-45
2021/08/22 13:52:47;;;;;;;46.60;3.95;;;;;;;;;;4993687;28;20041;-43
2021/08/22 13:55:15;;;;;;;6.38;2.85;;;;;;;;;;4993438;28;20022;-42
2021/08/22 13:57:41;;;;;;;8.05;2.80;;;;;;;;;;4993399;28;20030;-41
2021/08/22 14:00:08;;;;;;;3.15;1.75;;;;;;;;;;4993395;28;20022;-45
2021/08/22 14:02:39;;;;;;;4.13;2.28;;;;;;;;;;4990751;28;20027;-47
2021/08/22 14:05:05;;;;;;;4.53;2.40;;;;;;;;;;4992066;28;20032;-41
2021/08/22 14:07:31;;;;;;;12.15;2.40;;;;;;;;;;4993220;28;20479;-45
2021/08/22 14:09:57;;;;;;;20.23;12.20;;;;;;;;;;4992981;28;20042;-41
2021/08/22 14:12:24;;;;;;;6.25;3.25;;;;;;;;;;4993163;28;20073;-40
2021/08/22 14:14:51;;;;;;;5.93;2.67;;;;;;;;;;4994696;28;20015;-42
2021/08/22 14:17:17;;;;;;;23.55;3.35;;;;;;;;;;4997223;28;20022;-40
2021/08/22 14:19:49;;;;;;;16.10;3.00;;;;;;;;;;4997278;28;20022;-40
2021/08/22 14:22:15;;;;;;;12.73;2.85;;;;;;;;;;4997103;28;20022;-40
2021/08/22 14:24:41;;;;;;;4.30;3.42;;;;;;;;;;4997077;28;20073;-39
2021/08/22 14:27:07;;;;;;;9.15;7.72;;;;;;;;;;4996916;28;20094;-43
2021/08/22 14:29:33;;;;;;;4.88;2.83;;;;;;;;;;4997009;28;20486;-40
2021/08/22 14:31:59;;;;;;;5.78;3.30;;;;;;;;;;4997049;28;20022;-40
2021/08/22 14:34:25;;;;;;;3.88;2.00;;;;;;;;;;4996977;28;20505;-42
2021/08/22 14:36:51;;;;;;;14.63;2.78;;;;;;;;;;4996890;28;20022;-42
2021/08/22 14:39:18;;;;;;;5.05;2.25;;;;;;;;;;4996826;28;20101;-39
2021/08/22 14:41:44;;;;;;;3.47;2.33;;;;;;;;;;4996868;28;20027;-42
2021/08/22 14:44:10;;;;;;;4.18;2.58;;;;;;;;;;4996997;28;20053;-39